Terminal Aerodrome Forecast
Issued by NWS Charleston, WV

Current Version | Previous Version | Graphics & Text | Print | Product List | Glossary On
Versions: 1 2 3 4 5 6 7 8 9 10 11 12 13 14 15 16 17 18 19 20 21 22 23 24 25 26
000
FTUS41 KRLX 280500
TAFBKW
TAF
KBKW 280538Z 2806/2906 25010KT 6SM -SHRA VCTS SCT027CB SCT050
      BKN070
     FM280900 28010KT 5SM BR BKN025
     FM281400 29011G18KT P6SM BKN035
     FM282000 31012G19KT P6SM VCSH BKN035
     FM282300 32008KT P6SM BKN050=

USA.gov is the U.S. government's official web portal to all federal, state and local government web resources and services.